This is the latest recevied weather packets stored in our database for station/object DO7ZT-13. If no packets are shown the sender has not sent any weather packets the latest 10 day(s).
| Time | Temp. | Humidity | Pressure | Rain* | Wind** | Luminosity | Snow |
|---|---|---|---|---|---|---|---|
| 1777505127 | -1.11° C | 76% | 1030.8 hPa | 0 mm | 0.45 m/s, 144° | - | - |
| 1777502727 | 0° C | 72% | 1030.9 hPa | 0 mm | 0 m/s | - | - |
| 1777502127 | 0° C | 69% | 1030.9 hPa | 0 mm | 0.45 m/s, 132° | - | - |
| 1777500927 | 0° C | 75% | 1030.8 hPa | 0 mm | 0.45 m/s, 150° | - | - |
| 1777496114 | 0° C | 65% | 1030.3 hPa | 0 mm | 0 m/s | - | - |
| 1777494027 | 1.11° C | 65% | 1030 hPa | 0 mm | 0.89 m/s, 132° | - | - |
| 1777493714 | 2.22° C | 57% | 1030.2 hPa | 0 mm | 0.45 m/s, 90° | - | - |
| 1777491014 | 2.78° C | 55% | 1030 hPa | 0 mm | 0.45 m/s, 108° | - | - |
| 1777490414 | 2.78° C | 54% | 1030 hPa | 0 mm | 0.45 m/s, 102° | - | - |
| 1777488926 | 5° C | 44% | 1029.7 hPa | 0 mm | 0.45 m/s, 54° | - | - |
| 1777488014 | 6.11° C | 38% | 1029.4 hPa | 0 mm | 0 m/s | - | - |
| 1777481713 | 8.89° C | 33% | 1028.7 hPa | 0 mm | 0.89 m/s, 18° | - | - |
| 1777480225 | 8.89° C | 30% | 1028.5 hPa | 0 mm | 0.89 m/s, 354° | - | - |
| 1777476927 | 10° C | 31% | 1028.3 hPa | 0 mm | 1.34 m/s, 348° | - | - |
| 1777474525 | 10° C | 30% | 1028.3 hPa | 0 mm | 1.34 m/s, 0° | - | - |
| 1777473612 | 11.11° C | 28% | 1028.3 hPa | 0 mm | 1.79 m/s, 348° | - | - |
| 1777472725 | 10° C | 29% | 1028.2 hPa | 0 mm | 1.34 m/s, 0° | - | - |
| 1777472125 | 10° C | 29% | 1028.3 hPa | 0 mm | 1.34 m/s, 54° | - | - |
| 1777469112 | 10° C | 27% | 1028.1 hPa | 0 mm | 1.79 m/s, 43° | - | - |
| 1777468512 | 10° C | 29% | 1028 hPa | 0 mm | 1.34 m/s, 24° | - | - |
| 1777467312 | 11.11° C | 29% | 1028.1 hPa | 0 mm | 1.79 m/s, 49° | - | - |
| 1777466111 | 11.11° C | 33% | 1027.9 hPa | 0 mm | 1.34 m/s, 348° | - | - |
| 1777465511 | 10° C | 31% | 1028.1 hPa | 0 mm | 0.45 m/s, 18° | - | - |
| 1777464312 | 10° C | 30% | 1028.1 hPa | 0 mm | 0.45 m/s, 348° | - | - |
| 1777462524 | 8.89° C | 34% | 1028 hPa | 0 mm | 0.89 m/s, 307° | - | - |
* Rain latest hour (hover to see other rain measurements)
** Current wind speed in m/s (hover to see current wind gust speed)